Coral Electra — PCAG — position and weather

sailwx.info

Track history (hours):
 
Tides and Currents Weather Stations Pressure Air Temp Water Temp Dewpoint Dewpoint Depression Visibility Wind Speed Wind Dir Waves Ship Positions

Coral Electra

Last reported at 2016-Jul-23 18:31 UTC. Time now 2016-Jul-23 19:16 UTC.
Position N 53°27' E 006°50'.

Length 14 m.

Type: Port tender. MMSI: 244690019.

Date/timePositionNaut miles runAvg speedWind from/ knotsBaromVisibWave heightAir tempDewpointWater temp
2016-Jul-23 18:31N 53°27' E 006°50'0 0.0
2016-Jul-23 17:31N 53°27' E 006°50'0 0.0
2016-Jul-23 16:33N 53°27' E 006°50'0 0.0
2016-Jul-23 15:33N 53°27' E 006°50'0 0.0
2016-Jul-23 14:28N 53°27' E 006°50'0 0.0
2016-Jul-23 13:33N 53°27' E 006°50'0 0.0
2016-Jul-23 12:32N 53°27' E 006°50'0 0.0
2016-Jul-23 11:28N 53°27' E 006°50'0 0.0
2016-Jul-23 10:27N 53°27' E 006°50'0 0.0
2016-Jul-23 09:23N 53°27' E 006°50'0 0.0
2016-Jul-23 08:15N 53°27' E 006°50'0 0.0
2016-Jul-23 07:32N 53°27' E 006°50'0 0.0
2016-Jul-23 06:28N 53°27' E 006°50'0 0.0
2016-Jul-23 04:33N 53°27' E 006°50'0 0.0
2016-Jul-23 03:32N 53°27' E 006°50'0 0.0
2016-Jul-23 02:22N 53°27' E 006°50'0 0.0
2016-Jul-23 01:32N 53°27' E 006°50'0 0.0
2016-Jul-23 00:33N 53°27' E 006°50'0 0.0
2016-Jul-22 23:29N 53°27' E 006°50'0 0.0
2016-Jul-22 22:28N 53°27' E 006°50'0 0.0
2016-Jul-22 21:28N 53°27' E 006°50'0 0.0
2016-Jul-22 20:22N 53°27' E 006°50'0 0.0
2016-Jul-22 19:31N 53°27' E 006°50'0 0.0
2016-Jul-22 18:19N 53°27' E 006°50'0 0.0
2016-Jul-22 17:28N 53°27' E 006°50'0 0.0
2016-Jul-22 16:31N 53°27' E 006°50'0 0.0
2016-Jul-22 15:33N 53°27' E 006°50'0 0.0
2016-Jul-22 14:21N 53°27' E 006°50'0 0.0
2016-Jul-22 13:30N 53°27' E 006°50'0 0.0
2016-Jul-22 12:32N 53°27' E 006°50'0 0.0
2016-Jul-22 11:30N 53°27' E 006°50'0 0.0
2016-Jul-22 10:33N 53°27' E 006°50'0 0.0
2016-Jul-22 09:29N 53°27' E 006°50'0 0.0
2016-Jul-22 08:32N 53°27' E 006°50'0 0.0
2016-Jul-22 07:21N 53°27' E 006°50'0 0.0
2016-Jul-22 04:32N 53°27' E 006°50'0 0.0
2016-Jul-22 03:31N 53°27' E 006°50'0 0.0
2016-Jul-22 02:24N 53°27' E 006°50'0 0.0
2016-Jul-22 01:29N 53°27' E 006°50'0 0.0
2016-Jul-22 00:33N 53°27' E 006°50'0 0.0
2016-Jul-21 23:24N 53°27' E 006°50'0 0.0
2016-Jul-21 22:22N 53°27' E 006°50'0 0.0
2016-Jul-21 21:09N 53°27' E 006°50'0 0.0
2016-Jul-21 20:33N 53°27' E 006°50'0 0.0
2016-Jul-21 19:28N 53°27' E 006°50'1 0.7
2016-Jul-21 18:32N 53°27' E 006°50'2019.8
2016-Jul-21 17:33N 53°45' E 006°36'1313.3
2016-Jul-21 16:33N 53°58' E 006°40'0 0.0
2016-Jul-21 14:33N 53°58' E 006°40'8 8.0
2016-Jul-21 13:32N 53°50' E 006°42'2121.5
2016-Jul-21 12:33N 53°29' E 006°49'2 2.1
2016-Jul-21 11:31N 53°27' E 006°50'0 0.1
2016-Jul-21 10:33N 53°27' E 006°50'1 0.7
2016-Jul-21 09:33N 53°27' E 006°50'0 0.0
2016-Jul-21 08:32N 53°27' E 006°50'0 0.0
2016-Jul-21 07:33N 53°27' E 006°50'0 0.0
2016-Jul-21 06:30N 53°27' E 006°50'0 0.0
2016-Jul-21 05:30N 53°27' E 006°50'0 0.0
2016-Jul-21 04:32N 53°27' E 006°50'0 0.0
2016-Jul-21 03:28N 53°27' E 006°50'0 0.0
2016-Jul-21 02:27N 53°27' E 006°50'0 0.0
2016-Jul-21 01:32N 53°27' E 006°50'0 0.0
2016-Jul-21 00:32N 53°27' E 006°50'0 0.0
2016-Jul-20 23:34N 53°27' E 006°50'2120.8
2016-Jul-20 22:34N 53°41' E 006°25'22 6.7
2016-Jul-20 19:20N 54°01' E 006°40'4 4.5
2016-Jul-20 18:29N 53°58' E 006°44'4 3.9
2016-Jul-20 17:32N 53°55' E 006°41'1313.3
2016-Jul-20 16:33N 53°42' E 006°36'1715.1
2016-Jul-20 15:28N 53°27' E 006°49'1 0.6
2016-Jul-20 14:29N 53°27' E 006°50'0 0.0
2016-Jul-20 13:24N 53°27' E 006°50'0 0.0
2016-Jul-20 12:25N 53°27' E 006°50'0 0.0
2016-Jul-20 11:33N 53°27' E 006°50'0 0.0
2016-Jul-20 10:32N 53°27' E 006°50'0 0.0
2016-Jul-20 09:33N 53°27' E 006°50'0 0.0
2016-Jul-20 08:27N 53°27' E 006°50'0 0.0
2016-Jul-20 07:31N 53°27' E 006°50'0 0.0
2016-Jul-20 05:24N 53°27' E 006°50'0 0.0
2016-Jul-20 04:30N 53°27' E 006°50'0 0.0
2016-Jul-20 03:33N 53°27' E 006°50'0 0.0
2016-Jul-20 02:30N 53°27' E 006°50'0 0.0
2016-Jul-20 01:29N 53°27' E 006°50'0 0.0
2016-Jul-20 00:28N 53°27' E 006°50'0 0.0
2016-Jul-19 23:28N 53°27' E 006°50'0 0.0
2016-Jul-19 22:32N 53°27' E 006°50'0 0.0
2016-Jul-19 21:31N 53°27' E 006°50'0 0.0
2016-Jul-19 20:33N 53°27' E 006°50'0 0.0
2016-Jul-19 19:23N 53°27' E 006°50'0 0.0
2016-Jul-19 17:33N 53°27' E 006°50'2524.7
2016-Jul-19 16:32N 53°45' E 006°20'17 5.7
2016-Jul-19 13:32N 54°01' E 006°09'2424.6
2016-Jul-19 12:33N 53°39' E 006°28'1817.1
2016-Jul-19 11:30N 53°27' E 006°50'0 0.0
2016-Jul-19 10:25N 53°27' E 006°50'0 0.0
2016-Jul-19 09:31N 53°27' E 006°50'0 0.0
2016-Jul-19 08:30N 53°27' E 006°50'0 0.0
2016-Jul-19 07:31N 53°27' E 006°50'0 0.0
2016-Jul-19 04:33N 53°27' E 006°50'0 0.0
2016-Jul-19 03:31N 53°27' E 006°50'0 0.0
2016-Jul-19 02:27N 53°27' E 006°50'0 0.0
2016-Jul-19 01:28N 53°27' E 006°50'0 0.0
2016-Jul-19 00:32N 53°27' E 006°50'0 0.0
2016-Jul-18 23:27N 53°27' E 006°50'0 0.0
2016-Jul-18 22:28N 53°27' E 006°50'0 0.0
2016-Jul-18 21:28N 53°27' E 006°50'0 0.0
2016-Jul-18 20:33N 53°27' E 006°50'0 0.0
2016-Jul-18 19:26N 53°27' E 006°50'0 0.0
2016-Jul-18 18:31N 53°27' E 006°50'0 0.0
2016-Jul-18 17:28N 53°27' E 006°50'0 0.0
2016-Jul-18 16:22N 53°27' E 006°50'0 0.0
2016-Jul-18 15:11N 53°27' E 006°50'0 0.0
2016-Jul-18 14:29N 53°27' E 006°50'0 0.0
2016-Jul-18 13:33N 53°27' E 006°50'0 0.0
2016-Jul-18 12:25N 53°27' E 006°50'0 0.0
2016-Jul-18 11:27N 53°27' E 006°50'0 0.0
2016-Jul-18 10:33N 53°27' E 006°50'0 0.0
2016-Jul-18 09:33N 53°27' E 006°50'0 0.0
2016-Jul-18 08:32N 53°27' E 006°50'0 0.0
2016-Jul-18 07:32N 53°27' E 006°50'0 0.0
2016-Jul-18 04:25N 53°27' E 006°50'0 0.0
2016-Jul-18 03:26N 53°27' E 006°50'0 0.0
2016-Jul-18 02:23N 53°27' E 006°50'0 0.0
2016-Jul-18 01:29N 53°27' E 006°50'0 0.0
2016-Jul-18 00:33N 53°27' E 006°50'0 0.0
2016-Jul-17 23:28N 53°27' E 006°50'0 0.0
2016-Jul-17 22:33N 53°27' E 006°50'0 0.0
2016-Jul-17 21:32N 53°27' E 006°50'0 0.0
2016-Jul-17 20:32N 53°27' E 006°50'0 0.0
2016-Jul-17 19:32N 53°27' E 006°50'0 0.0
2016-Jul-17 18:31N 53°27' E 006°50'0 0.0
2016-Jul-17 17:33N 53°27' E 006°50'0 0.0
2016-Jul-17 16:33N 53°27' E 006°50'0 0.0
2016-Jul-17 15:32N 53°27' E 006°50'0 0.1
2016-Jul-17 14:30N 53°27' E 006°49'0 0.1
2016-Jul-17 13:29N 53°27' E 006°50'0 0.0
2016-Jul-17 12:32N 53°27' E 006°50'0 0.0
2016-Jul-17 11:32N 53°27' E 006°50'0 0.0
2016-Jul-17 10:32N 53°27' E 006°50'0 0.0
2016-Jul-17 09:32N 53°27' E 006°50'0 0.0
2016-Jul-17 08:32N 53°27' E 006°50'0 0.0
2016-Jul-17 07:33N 53°27' E 006°50'0 0.0
2016-Jul-17 06:31N 53°27' E 006°50'0 0.0
2016-Jul-17 04:33N 53°27' E 006°50'0 0.0
2016-Jul-17 03:32N 53°27' E 006°50'0 0.0
2016-Jul-17 02:26N 53°27' E 006°50'0 0.0
2016-Jul-17 01:33N 53°27' E 006°50'0 0.0
2016-Jul-17 00:30N 53°27' E 006°50'0 0.0
2016-Jul-16 23:33N 53°27' E 006°50'0 0.0
2016-Jul-16 22:30N 53°27' E 006°50'0 0.0
2016-Jul-16 21:33N 53°27' E 006°50'0 0.0
2016-Jul-16 20:19N 53°27' E 006°50'0 0.0
2016-Jul-16 19:34N 53°27' E 006°50'0 0.0
2016-Jul-16 18:33N 53°27' E 006°50'0 0.0
2016-Jul-16 17:15N 53°27' E 006°50'0 0.0
2016-Jul-16 16:25N 53°27' E 006°50'0 0.0
2016-Jul-16 15:26N 53°27' E 006°50'0 0.0
2016-Jul-16 14:33N 53°27' E 006°50'0 0.0
2016-Jul-16 13:33N 53°27' E 006°50'0 0.0
2016-Jul-16 12:31N 53°27' E 006°50'0 0.0
2016-Jul-16 11:34N 53°27' E 006°50'0 0.0
2016-Jul-16 10:33N 53°27' E 006°50'0 0.0
2016-Jul-16 09:32N 53°27' E 006°50'0 0.0
2016-Jul-16 08:25N 53°27' E 006°50'0 0.0
2016-Jul-16 07:26N 53°27' E 006°50'0 0.0
2016-Jul-16 06:33N 53°27' E 006°50'0 0.0
2016-Jul-16 04:33N 53°27' E 006°50'0 0.0
2016-Jul-16 03:31N 53°27' E 006°50'0 0.0
2016-Jul-16 02:33N 53°27' E 006°50'0 0.0
2016-Jul-16 01:26N 53°27' E 006°50'0 0.0
2016-Jul-16 00:33N 53°27' E 006°50'0 0.0
2016-Jul-15 23:19N 53°27' E 006°50'0 0.0
2016-Jul-15 22:12N 53°27' E 006°50'0 0.0
2016-Jul-15 21:33N 53°27' E 006°50'0 0.0
2016-Jul-15 20:33N 53°27' E 006°50'0 0.0
2016-Jul-15 19:31N 53°27' E 006°50'0 0.0
2016-Jul-15 18:31N 53°27' E 006°50'0 0.0
2016-Jul-15 17:33N 53°27' E 006°50'0 0.0
2016-Jul-15 16:28N 53°27' E 006°50'0 0.0
2016-Jul-15 15:32N 53°27' E 006°50'0 0.0
2016-Jul-15 14:28N 53°27' E 006°50'0 0.0
2016-Jul-15 13:33N 53°27' E 006°50'0 0.0
2016-Jul-15 12:33N 53°27' E 006°50'0 0.0
2016-Jul-15 11:34N 53°27' E 006°50'0 0.0
2016-Jul-15 10:29N 53°27' E 006°50'0 0.0
2016-Jul-15 09:33N 53°27' E 006°50'0 0.0
2016-Jul-15 08:29N 53°27' E 006°50'0 0.0
2016-Jul-15 07:33N 53°27' E 006°50'0 0.0
2016-Jul-15 06:33N 53°27' E 006°50'0 0.0
2016-Jul-15 05:33N 53°27' E 006°50'0 0.0
2016-Jul-15 04:22N 53°27' E 006°50'0 0.0
2016-Jul-15 03:33N 53°27' E 006°50'0 0.0
2016-Jul-15 02:29N 53°27' E 006°50'0 0.0
2016-Jul-15 01:32N 53°27' E 006°50'0 0.0
2016-Jul-15 00:33N 53°27' E 006°50'0 0.0
2016-Jul-14 23:30N 53°27' E 006°50'0 0.0
2016-Jul-14 22:30N 53°27' E 006°50'0 0.0
2016-Jul-14 21:34N 53°27' E 006°50'0 0.0
2016-Jul-14 20:32N 53°27' E 006°50'0 0.0
2016-Jul-14 19:33N 53°27' E 006°50'0 0.0
2016-Jul-14 18:32N 53°27' E 006°50'0 0.0
2016-Jul-14 17:33N 53°27' E 006°50'0 0.0
2016-Jul-14 16:32N 53°27' E 006°50'0 0.0
2016-Jul-14 15:32N 53°27' E 006°50'0 0.0
2016-Jul-14 14:32N 53°27' E 006°50'0 0.0
2016-Jul-14 13:30N 53°27' E 006°50'0 0.0
2016-Jul-14 12:29N 53°27' E 006°50'0 0.0
2016-Jul-14 11:33N 53°27' E 006°50'0 0.0
2016-Jul-14 10:31N 53°27' E 006°50'0 0.0
2016-Jul-14 09:33N 53°27' E 006°50'0 0.0
2016-Jul-14 08:33N 53°27' E 006°50'0 0.0
2016-Jul-14 07:33N 53°27' E 006°50'0 0.0
2016-Jul-14 06:31N 53°27' E 006°50'0 0.0
2016-Jul-14 05:32N 53°27' E 006°50'0 0.0
2016-Jul-14 04:33N 53°27' E 006°50'0 0.0
2016-Jul-14 03:32N 53°27' E 006°50'0 0.0
2016-Jul-14 02:29N 53°27' E 006°50'0 0.0
2016-Jul-14 01:33N 53°27' E 006°50'0 0.0
2016-Jul-14 00:31N 53°27' E 006°50'0 0.0
2016-Jul-13 23:31N 53°27' E 006°50'0 0.0
2016-Jul-13 22:33N 53°27' E 006°50'0 0.0
2016-Jul-13 21:25N 53°27' E 006°50'0 0.0
2016-Jul-13 20:34N 53°27' E 006°50'0 0.0
2016-Jul-13 19:33N 53°27' E 006°50'  
Track history (hours):
 
Tides and Currents Weather Stations Pressure Air Temp Water Temp Dewpoint Dewpoint Depression Visibility Wind Speed Wind Dir Waves Ship Positions

Coral Electra

Last reported at 2016-Jul-23 18:31 UTC. Time now 2016-Jul-23 19:16 UTC.
Position N 53°27' E 006°50'.

Length 14 m.

Type: Port tender. MMSI: 244690019.

Date/timePositionNaut miles runAvg speedWind from/ knotsBaromVisibWave heightAir tempDewpointWater temp
2016-Jul-23 18:31N 53°27' E 006°50'0 0.0
2016-Jul-23 17:31N 53°27' E 006°50'0 0.0
2016-Jul-23 16:33N 53°27' E 006°50'0 0.0
2016-Jul-23 15:33N 53°27' E 006°50'0 0.0
2016-Jul-23 14:28N 53°27' E 006°50'0 0.0
2016-Jul-23 13:33N 53°27' E 006°50'0 0.0
2016-Jul-23 12:32N 53°27' E 006°50'0 0.0
2016-Jul-23 11:28N 53°27' E 006°50'0 0.0
2016-Jul-23 10:27N 53°27' E 006°50'0 0.0
2016-Jul-23 09:23N 53°27' E 006°50'0 0.0
2016-Jul-23 08:15N 53°27' E 006°50'0 0.0
2016-Jul-23 07:32N 53°27' E 006°50'0 0.0
2016-Jul-23 06:28N 53°27' E 006°50'0 0.0
2016-Jul-23 04:33N 53°27' E 006°50'0 0.0
2016-Jul-23 03:32N 53°27' E 006°50'0 0.0
2016-Jul-23 02:22N 53°27' E 006°50'0 0.0
2016-Jul-23 01:32N 53°27' E 006°50'0 0.0
2016-Jul-23 00:33N 53°27' E 006°50'0 0.0
2016-Jul-22 23:29N 53°27' E 006°50'0 0.0
2016-Jul-22 22:28N 53°27' E 006°50'0 0.0
2016-Jul-22 21:28N 53°27' E 006°50'0 0.0
2016-Jul-22 20:22N 53°27' E 006°50'0 0.0
2016-Jul-22 19:31N 53°27' E 006°50'0 0.0
2016-Jul-22 18:19N 53°27' E 006°50'0 0.0
2016-Jul-22 17:28N 53°27' E 006°50'0 0.0
2016-Jul-22 16:31N 53°27' E 006°50'0 0.0
2016-Jul-22 15:33N 53°27' E 006°50'0 0.0
2016-Jul-22 14:21N 53°27' E 006°50'0 0.0
2016-Jul-22 13:30N 53°27' E 006°50'0 0.0
2016-Jul-22 12:32N 53°27' E 006°50'0 0.0
2016-Jul-22 11:30N 53°27' E 006°50'0 0.0
2016-Jul-22 10:33N 53°27' E 006°50'0 0.0
2016-Jul-22 09:29N 53°27' E 006°50'0 0.0
2016-Jul-22 08:32N 53°27' E 006°50'0 0.0
2016-Jul-22 07:21N 53°27' E 006°50'0 0.0
2016-Jul-22 04:32N 53°27' E 006°50'0 0.0
2016-Jul-22 03:31N 53°27' E 006°50'0 0.0
2016-Jul-22 02:24N 53°27' E 006°50'0 0.0
2016-Jul-22 01:29N 53°27' E 006°50'0 0.0
2016-Jul-22 00:33N 53°27' E 006°50'0 0.0
2016-Jul-21 23:24N 53°27' E 006°50'0 0.0
2016-Jul-21 22:22N 53°27' E 006°50'0 0.0
2016-Jul-21 21:09N 53°27' E 006°50'0 0.0
2016-Jul-21 20:33N 53°27' E 006°50'0 0.0
2016-Jul-21 19:28N 53°27' E 006°50'1 0.7
2016-Jul-21 18:32N 53°27' E 006°50'2019.8
2016-Jul-21 17:33N 53°45' E 006°36'1313.3
2016-Jul-21 16:33N 53°58' E 006°40'0 0.0
2016-Jul-21 14:33N 53°58' E 006°40'8 8.0
2016-Jul-21 13:32N 53°50' E 006°42'2121.5
2016-Jul-21 12:33N 53°29' E 006°49'2 2.1
2016-Jul-21 11:31N 53°27' E 006°50'0 0.1
2016-Jul-21 10:33N 53°27' E 006°50'1 0.7
2016-Jul-21 09:33N 53°27' E 006°50'0 0.0
2016-Jul-21 08:32N 53°27' E 006°50'0 0.0
2016-Jul-21 07:33N 53°27' E 006°50'0 0.0
2016-Jul-21 06:30N 53°27' E 006°50'0 0.0
2016-Jul-21 05:30N 53°27' E 006°50'0 0.0
2016-Jul-21 04:32N 53°27' E 006°50'0 0.0
2016-Jul-21 03:28N 53°27' E 006°50'0 0.0
2016-Jul-21 02:27N 53°27' E 006°50'0 0.0
2016-Jul-21 01:32N 53°27' E 006°50'0 0.0
2016-Jul-21 00:32N 53°27' E 006°50'0 0.0
2016-Jul-20 23:34N 53°27' E 006°50'2120.8
2016-Jul-20 22:34N 53°41' E 006°25'22 6.7
2016-Jul-20 19:20N 54°01' E 006°40'4 4.5
2016-Jul-20 18:29N 53°58' E 006°44'4 3.9
2016-Jul-20 17:32N 53°55' E 006°41'1313.3
2016-Jul-20 16:33N 53°42' E 006°36'1715.1
2016-Jul-20 15:28N 53°27' E 006°49'1 0.6
2016-Jul-20 14:29N 53°27' E 006°50'0 0.0
2016-Jul-20 13:24N 53°27' E 006°50'0 0.0
2016-Jul-20 12:25N 53°27' E 006°50'0 0.0
2016-Jul-20 11:33N 53°27' E 006°50'0 0.0
2016-Jul-20 10:32N 53°27' E 006°50'0 0.0
2016-Jul-20 09:33N 53°27' E 006°50'0 0.0
2016-Jul-20 08:27N 53°27' E 006°50'0 0.0
2016-Jul-20 07:31N 53°27' E 006°50'0 0.0
2016-Jul-20 05:24N 53°27' E 006°50'0 0.0
2016-Jul-20 04:30N 53°27' E 006°50'0 0.0
2016-Jul-20 03:33N 53°27' E 006°50'0 0.0
2016-Jul-20 02:30N 53°27' E 006°50'0 0.0
2016-Jul-20 01:29N 53°27' E 006°50'0 0.0
2016-Jul-20 00:28N 53°27' E 006°50'0 0.0
2016-Jul-19 23:28N 53°27' E 006°50'0 0.0
2016-Jul-19 22:32N 53°27' E 006°50'0 0.0
2016-Jul-19 21:31N 53°27' E 006°50'0 0.0
2016-Jul-19 20:33N 53°27' E 006°50'0 0.0
2016-Jul-19 19:23N 53°27' E 006°50'0 0.0
2016-Jul-19 17:33N 53°27' E 006°50'2524.7
2016-Jul-19 16:32N 53°45' E 006°20'17 5.7
2016-Jul-19 13:32N 54°01' E 006°09'2424.6
2016-Jul-19 12:33N 53°39' E 006°28'1817.1
2016-Jul-19 11:30N 53°27' E 006°50'0 0.0
2016-Jul-19 10:25N 53°27' E 006°50'0 0.0
2016-Jul-19 09:31N 53°27' E 006°50'0 0.0
2016-Jul-19 08:30N 53°27' E 006°50'0 0.0
2016-Jul-19 07:31N 53°27' E 006°50'0 0.0
2016-Jul-19 04:33N 53°27' E 006°50'0 0.0
2016-Jul-19 03:31N 53°27' E 006°50'0 0.0
2016-Jul-19 02:27N 53°27' E 006°50'0 0.0
2016-Jul-19 01:28N 53°27' E 006°50'0 0.0
2016-Jul-19 00:32N 53°27' E 006°50'0 0.0
2016-Jul-18 23:27N 53°27' E 006°50'0 0.0
2016-Jul-18 22:28N 53°27' E 006°50'0 0.0
2016-Jul-18 21:28N 53°27' E 006°50'0 0.0
2016-Jul-18 20:33N 53°27' E 006°50'0 0.0
2016-Jul-18 19:26N 53°27' E 006°50'0 0.0
2016-Jul-18 18:31N 53°27' E 006°50'0 0.0
2016-Jul-18 17:28N 53°27' E 006°50'0 0.0
2016-Jul-18 16:22N 53°27' E 006°50'0 0.0
2016-Jul-18 15:11N 53°27' E 006°50'0 0.0
2016-Jul-18 14:29N 53°27' E 006°50'0 0.0
2016-Jul-18 13:33N 53°27' E 006°50'0 0.0
2016-Jul-18 12:25N 53°27' E 006°50'0 0.0
2016-Jul-18 11:27N 53°27' E 006°50'0 0.0
2016-Jul-18 10:33N 53°27' E 006°50'0 0.0
2016-Jul-18 09:33N 53°27' E 006°50'0 0.0
2016-Jul-18 08:32N 53°27' E 006°50'0 0.0
2016-Jul-18 07:32N 53°27' E 006°50'0 0.0
2016-Jul-18 04:25N 53°27' E 006°50'0 0.0
2016-Jul-18 03:26N 53°27' E 006°50'0 0.0
2016-Jul-18 02:23N 53°27' E 006°50'0 0.0
2016-Jul-18 01:29N 53°27' E 006°50'0 0.0
2016-Jul-18 00:33N 53°27' E 006°50'0 0.0
2016-Jul-17 23:28N 53°27' E 006°50'0 0.0
2016-Jul-17 22:33N 53°27' E 006°50'0 0.0
2016-Jul-17 21:32N 53°27' E 006°50'0 0.0
2016-Jul-17 20:32N 53°27' E 006°50'0 0.0
2016-Jul-17 19:32N 53°27' E 006°50'0 0.0
2016-Jul-17 18:31N 53°27' E 006°50'0 0.0
2016-Jul-17 17:33N 53°27' E 006°50'0 0.0
2016-Jul-17 16:33N 53°27' E 006°50'0 0.0
2016-Jul-17 15:32N 53°27' E 006°50'0 0.1
2016-Jul-17 14:30N 53°27' E 006°49'0 0.1
2016-Jul-17 13:29N 53°27' E 006°50'0 0.0
2016-Jul-17 12:32N 53°27' E 006°50'0 0.0
2016-Jul-17 11:32N 53°27' E 006°50'0 0.0
2016-Jul-17 10:32N 53°27' E 006°50'0 0.0
2016-Jul-17 09:32N 53°27' E 006°50'0 0.0
2016-Jul-17 08:32N 53°27' E 006°50'0 0.0
2016-Jul-17 07:33N 53°27' E 006°50'0 0.0
2016-Jul-17 06:31N 53°27' E 006°50'0 0.0
2016-Jul-17 04:33N 53°27' E 006°50'0 0.0
2016-Jul-17 03:32N 53°27' E 006°50'0 0.0
2016-Jul-17 02:26N 53°27' E 006°50'0 0.0
2016-Jul-17 01:33N 53°27' E 006°50'0 0.0
2016-Jul-17 00:30N 53°27' E 006°50'0 0.0
2016-Jul-16 23:33N 53°27' E 006°50'0 0.0
2016-Jul-16 22:30N 53°27' E 006°50'0 0.0
2016-Jul-16 21:33N 53°27' E 006°50'0 0.0
2016-Jul-16 20:19N 53°27' E 006°50'0 0.0
2016-Jul-16 19:34N 53°27' E 006°50'0 0.0
2016-Jul-16 18:33N 53°27' E 006°50'0 0.0
2016-Jul-16 17:15N 53°27' E 006°50'0 0.0
2016-Jul-16 16:25N 53°27' E 006°50'0 0.0
2016-Jul-16 15:26N 53°27' E 006°50'0 0.0
2016-Jul-16 14:33N 53°27' E 006°50'0 0.0
2016-Jul-16 13:33N 53°27' E 006°50'0 0.0
2016-Jul-16 12:31N 53°27' E 006°50'0 0.0
2016-Jul-16 11:34N 53°27' E 006°50'0 0.0
2016-Jul-16 10:33N 53°27' E 006°50'0 0.0
2016-Jul-16 09:32N 53°27' E 006°50'0 0.0
2016-Jul-16 08:25N 53°27' E 006°50'0 0.0
2016-Jul-16 07:26N 53°27' E 006°50'0 0.0
2016-Jul-16 06:33N 53°27' E 006°50'0 0.0
2016-Jul-16 04:33N 53°27' E 006°50'0 0.0
2016-Jul-16 03:31N 53°27' E 006°50'0 0.0
2016-Jul-16 02:33N 53°27' E 006°50'0 0.0
2016-Jul-16 01:26N 53°27' E 006°50'0 0.0
2016-Jul-16 00:33N 53°27' E 006°50'0 0.0
2016-Jul-15 23:19N 53°27' E 006°50'0 0.0
2016-Jul-15 22:12N 53°27' E 006°50'0 0.0
2016-Jul-15 21:33N 53°27' E 006°50'0 0.0
2016-Jul-15 20:33N 53°27' E 006°50'0 0.0
2016-Jul-15 19:31N 53°27' E 006°50'0 0.0
2016-Jul-15 18:31N 53°27' E 006°50'0 0.0
2016-Jul-15 17:33N 53°27' E 006°50'0 0.0
2016-Jul-15 16:28N 53°27' E 006°50'0 0.0
2016-Jul-15 15:32N 53°27' E 006°50'0 0.0
2016-Jul-15 14:28N 53°27' E 006°50'0 0.0
2016-Jul-15 13:33N 53°27' E 006°50'0 0.0
2016-Jul-15 12:33N 53°27' E 006°50'0 0.0
2016-Jul-15 11:34N 53°27' E 006°50'0 0.0
2016-Jul-15 10:29N 53°27' E 006°50'0 0.0
2016-Jul-15 09:33N 53°27' E 006°50'0 0.0
2016-Jul-15 08:29N 53°27' E 006°50'0 0.0
2016-Jul-15 07:33N 53°27' E 006°50'0 0.0
2016-Jul-15 06:33N 53°27' E 006°50'0 0.0
2016-Jul-15 05:33N 53°27' E 006°50'0 0.0
2016-Jul-15 04:22N 53°27' E 006°50'0 0.0
2016-Jul-15 03:33N 53°27' E 006°50'0 0.0
2016-Jul-15 02:29N 53°27' E 006°50'0 0.0
2016-Jul-15 01:32N 53°27' E 006°50'0 0.0
2016-Jul-15 00:33N 53°27' E 006°50'0 0.0
2016-Jul-14 23:30N 53°27' E 006°50'0 0.0
2016-Jul-14 22:30N 53°27' E 006°50'0 0.0
2016-Jul-14 21:34N 53°27' E 006°50'0 0.0
2016-Jul-14 20:32N 53°27' E 006°50'0 0.0
2016-Jul-14 19:33N 53°27' E 006°50'0 0.0
2016-Jul-14 18:32N 53°27' E 006°50'0 0.0
2016-Jul-14 17:33N 53°27' E 006°50'0 0.0
2016-Jul-14 16:32N 53°27' E 006°50'0 0.0
2016-Jul-14 15:32N 53°27' E 006°50'0 0.0
2016-Jul-14 14:32N 53°27' E 006°50'0 0.0
2016-Jul-14 13:30N 53°27' E 006°50'0 0.0
2016-Jul-14 12:29N 53°27' E 006°50'0 0.0
2016-Jul-14 11:33N 53°27' E 006°50'0 0.0
2016-Jul-14 10:31N 53°27' E 006°50'0 0.0
2016-Jul-14 09:33N 53°27' E 006°50'0 0.0
2016-Jul-14 08:33N 53°27' E 006°50'0 0.0
2016-Jul-14 07:33N 53°27' E 006°50'0 0.0
2016-Jul-14 06:31N 53°27' E 006°50'0 0.0
2016-Jul-14 05:32N 53°27' E 006°50'0 0.0
2016-Jul-14 04:33N 53°27' E 006°50'0 0.0
2016-Jul-14 03:32N 53°27' E 006°50'0 0.0
2016-Jul-14 02:29N 53°27' E 006°50'0 0.0
2016-Jul-14 01:33N 53°27' E 006°50'0 0.0
2016-Jul-14 00:31N 53°27' E 006°50'0 0.0
2016-Jul-13 23:31N 53°27' E 006°50'0 0.0
2016-Jul-13 22:33N 53°27' E 006°50'0 0.0
2016-Jul-13 21:25N 53°27' E 006°50'0 0.0
2016-Jul-13 20:34N 53°27' E 006°50'0 0.0
2016-Jul-13 19:33N 53°27' E 006°50'  

Dump ship's entire track history